createdAt,value
2023-04-11T00:00:23.779Z,12.60
2023-04-11T00:02:52.198Z,12.60
2023-04-11T00:05:19.098Z,12.60
2023-04-11T00:07:45.815Z,12.70
2023-04-11T00:10:12.805Z,12.70
2023-04-11T00:12:39.460Z,12.70
2023-04-11T00:15:08.082Z,12.70
2023-04-11T00:17:37.639Z,12.70
2023-04-11T00:20:08.243Z,12.80
2023-04-11T00:22:35.855Z,12.80
2023-04-11T00:25:02.775Z,12.80
2023-04-11T00:27:29.457Z,12.80
2023-04-11T00:29:57.924Z,12.80
2023-04-11T00:32:25.146Z,12.80
2023-04-11T00:34:51.911Z,12.80
2023-04-11T00:37:21.451Z,12.80
2023-04-11T00:39:53.013Z,12.80
2023-04-11T00:42:20.401Z,12.80
2023-04-11T00:44:47.141Z,12.80
2023-04-11T00:47:14.499Z,12.90
2023-04-11T00:49:41.547Z,12.80
2023-04-11T00:52:08.444Z,12.90
2023-04-11T00:54:35.260Z,13.00
2023-04-11T00:57:03.870Z,12.90
2023-04-11T00:59:32.504Z,13.00
2023-04-11T01:02:00.239Z,13.00
2023-04-11T01:04:27.122Z,13.10
2023-04-11T01:06:57.929Z,13.00
2023-04-11T01:09:27.205Z,13.00
2023-04-11T01:11:54.520Z,13.00
2023-04-11T01:14:22.573Z,13.00
2023-04-11T01:16:50.743Z,12.90
2023-04-11T01:19:22.340Z,12.90
2023-04-11T01:21:50.973Z,12.80
2023-04-11T01:24:18.362Z,12.90
2023-04-11T01:26:45.808Z,12.80
2023-04-11T01:29:12.519Z,12.80
2023-04-11T01:31:39.330Z,12.80
2023-04-11T01:34:07.375Z,12.80
2023-04-11T01:36:34.153Z,12.80
2023-04-11T01:39:01.485Z,12.80
2023-04-11T01:41:30.253Z,12.80
2023-04-11T01:43:57.220Z,12.70
2023-04-11T01:46:25.094Z,12.70
2023-04-11T01:48:55.540Z,12.80
2023-04-11T01:51:22.600Z,12.70
2023-04-11T01:53:49.399Z,12.60
2023-04-11T01:56:16.120Z,12.60
2023-04-11T01:58:42.901Z,12.50
2023-04-11T02:01:09.735Z,12.50
2023-04-11T02:03:37.110Z,12.40
2023-04-11T02:06:04.365Z,12.40
2023-04-11T02:08:31.217Z,12.30
2023-04-11T02:10:57.874Z,12.30
2023-04-11T02:13:25.851Z,12.20
2023-04-11T02:15:52.645Z,12.20
2023-04-11T02:18:19.383Z,12.20
2023-04-11T02:20:46.098Z,12.00
2023-04-11T02:23:12.865Z,11.90
2023-04-11T02:25:39.649Z,11.80
2023-04-11T02:28:08.124Z,11.80
2023-04-11T02:30:35.086Z,11.70
2023-04-11T02:33:03.114Z,11.70
2023-04-11T02:35:29.890Z,11.50
2023-04-11T02:37:56.666Z,11.40
2023-04-11T02:40:23.580Z,11.30
2023-04-11T02:42:50.330Z,11.30
2023-04-11T02:45:17.082Z,11.30
2023-04-11T02:47:43.751Z,11.10
2023-04-11T02:50:10.822Z,11.10
2023-04-11T02:52:39.277Z,11.00
2023-04-11T02:55:06.317Z,10.90
2023-04-11T02:57:33.004Z,10.80
2023-04-11T02:59:59.745Z,10.90
2023-04-11T03:02:26.648Z,10.70
2023-04-11T03:04:53.547Z,10.70
2023-04-11T03:07:20.236Z,10.60
2023-04-11T03:09:47.088Z,10.50
2023-04-11T03:12:13.815Z,10.40
2023-04-11T03:14:40.607Z,10.30
2023-04-11T03:17:07.348Z,10.30
2023-04-11T03:19:34.037Z,10.30
2023-04-11T03:22:01.734Z,10.30
2023-04-11T03:24:28.431Z,10.30
2023-04-11T03:26:55.982Z,10.30
2023-04-11T03:29:22.637Z,10.40
2023-04-11T03:31:49.417Z,10.20
2023-04-11T03:34:17.937Z,10.20
2023-04-11T03:36:44.709Z,10.20
2023-04-11T03:39:11.464Z,10.20
2023-04-11T03:41:38.211Z,10.20
2023-04-11T03:44:05.028Z,10.20
2023-04-11T03:46:31.968Z,10.20
2023-04-11T03:48:58.811Z,10.40
2023-04-11T03:51:26.744Z,10.30
2023-04-11T03:53:53.472Z,10.30
2023-04-11T03:56:20.875Z,10.20
2023-04-11T03:58:47.580Z,10.30
2023-04-11T04:01:14.244Z,10.20
2023-04-11T04:03:41.310Z,10.20
2023-04-11T04:06:08.434Z,10.20
2023-04-11T04:08:35.421Z,10.20
2023-04-11T04:11:02.062Z,10.10
2023-04-11T04:13:28.877Z,10.20
2023-04-11T04:15:55.591Z,10.00
2023-04-11T04:18:22.383Z,10.20
2023-04-11T04:20:49.447Z,10.00
2023-04-11T04:23:18.115Z,9.90
2023-04-11T04:25:48.306Z,9.80
2023-04-11T04:28:17.781Z,9.70
2023-04-11T04:30:50.137Z,9.70
2023-04-11T04:33:18.713Z,9.60
2023-04-11T04:35:45.546Z,9.50
2023-04-11T04:38:17.862Z,9.50
2023-04-11T04:40:44.820Z,9.40
2023-04-11T04:43:18.189Z,9.30
2023-04-11T04:45:45.734Z,9.30
2023-04-11T04:48:17.269Z,9.20
2023-04-11T04:50:45.844Z,9.00
2023-04-11T04:53:12.866Z,9.00
2023-04-11T04:55:39.602Z,9.10
2023-04-11T04:58:06.365Z,9.00
2023-04-11T05:00:33.797Z,9.10
2023-04-11T05:03:00.734Z,8.90
2023-04-11T05:05:27.614Z,8.90
2023-04-11T05:07:54.343Z,8.80
2023-04-11T05:10:21.164Z,8.70
2023-04-11T05:12:47.897Z,8.80
2023-04-11T05:15:15.260Z,8.80
2023-04-11T05:17:42.754Z,8.70
2023-04-11T05:20:10.230Z,8.50
2023-04-11T05:22:38.133Z,8.50
2023-04-11T05:25:05.967Z,8.50
2023-04-11T05:27:32.694Z,8.40
2023-04-11T05:30:01.149Z,8.30
2023-04-11T05:32:28.020Z,8.30
2023-04-11T05:34:59.109Z,8.30
2023-04-11T05:37:31.437Z,8.20
2023-04-11T05:39:58.605Z,8.30
2023-04-11T05:42:25.397Z,8.20
2023-04-11T05:44:52.129Z,8.10
2023-04-11T05:47:18.852Z,8.10
2023-04-11T05:49:45.841Z,8.10
2023-04-11T05:52:12.659Z,8.20
2023-04-11T05:54:39.488Z,8.10
2023-04-11T05:57:07.607Z,8.10
2023-04-11T05:59:34.818Z,8.10
2023-04-11T06:02:02.032Z,8.00
2023-04-11T06:04:28.954Z,8.00
2023-04-11T06:06:56.161Z,8.00
2023-04-11T06:09:22.961Z,8.00
2023-04-11T06:11:49.675Z,8.00
2023-04-11T06:14:16.517Z,8.10
2023-04-11T06:16:43.400Z,8.10
2023-04-11T06:19:10.142Z,8.10
2023-04-11T06:21:36.954Z,8.00
2023-04-11T06:24:08.641Z,8.00
2023-04-11T06:26:35.435Z,7.90
2023-04-11T06:29:06.568Z,7.90
2023-04-11T06:31:33.882Z,7.90
2023-04-11T06:34:01.957Z,7.80
2023-04-11T06:36:29.926Z,7.80
2023-04-11T06:38:56.751Z,7.80
2023-04-11T06:41:23.789Z,7.80
2023-04-11T06:43:50.494Z,7.80
2023-04-11T06:46:17.398Z,7.80
2023-04-11T06:48:44.094Z,7.80
2023-04-11T06:51:11.017Z,7.80
2023-04-11T06:53:37.803Z,7.90
2023-04-11T06:56:04.757Z,7.80
2023-04-11T06:58:31.524Z,7.70
2023-04-11T07:00:58.349Z,7.70
2023-04-11T07:03:25.477Z,7.60
2023-04-11T07:05:52.734Z,7.70
2023-04-11T07:08:19.597Z,7.60
2023-04-11T07:10:46.353Z,7.70
2023-04-11T07:13:13.178Z,7.70
2023-04-11T07:15:40.184Z,7.80
2023-04-11T07:18:07.060Z,7.80
2023-04-11T07:20:37.060Z,7.90
2023-04-11T07:23:04.345Z,7.80
2023-04-11T07:25:33.506Z,8.00
2023-04-11T07:28:00.965Z,8.00
2023-04-11T07:30:28.429Z,8.00
2023-04-11T07:32:57.254Z,8.00
2023-04-11T07:35:24.185Z,8.00
2023-04-11T07:37:53.801Z,8.00
2023-04-11T07:40:20.739Z,8.10
2023-04-11T07:42:47.540Z,8.10
2023-04-11T07:45:14.316Z,8.10
2023-04-11T07:47:41.209Z,8.10
2023-04-11T07:50:08.492Z,8.20
2023-04-11T07:52:35.677Z,8.20
2023-04-11T07:55:04.159Z,8.30
2023-04-11T07:57:31.369Z,8.30
2023-04-11T08:00:01.158Z,8.40
2023-04-11T08:02:28.216Z,8.40
2023-04-11T08:04:55.393Z,8.50
2023-04-11T08:07:22.106Z,8.50
2023-04-11T08:09:48.873Z,8.60
2023-04-11T08:12:16.643Z,8.60
2023-04-11T08:14:47.070Z,8.70
2023-04-11T08:17:25.008Z,8.80
2023-04-11T08:19:57.828Z,8.70
2023-04-11T08:22:27.841Z,8.70
2023-04-11T08:24:54.637Z,8.70
2023-04-11T08:27:21.573Z,8.70
2023-04-11T08:29:52.890Z,8.80
2023-04-11T08:32:19.817Z,8.80
2023-04-11T08:34:47.031Z,8.80
2023-04-11T08:37:13.795Z,8.70
2023-04-11T08:39:40.890Z,8.80
2023-04-11T08:42:11.019Z,8.90
2023-04-11T08:44:37.925Z,9.00
2023-04-11T08:47:07.934Z,9.10
2023-04-11T08:49:41.191Z,9.30
2023-04-11T08:52:08.163Z,9.30
2023-04-11T08:54:35.051Z,9.40
2023-04-11T08:57:04.313Z,9.50
2023-04-11T08:59:35.420Z,9.60
2023-04-11T09:02:14.726Z,9.70
2023-04-11T09:04:42.784Z,9.70
2023-04-11T09:07:11.671Z,9.70
2023-04-11T09:09:40.976Z,9.80
2023-04-11T09:12:08.959Z,9.80
2023-04-11T09:14:36.265Z,9.80
2023-04-11T09:17:19.933Z,9.90
2023-04-11T09:19:52.409Z,10.00
2023-04-11T09:22:19.193Z,9.90
2023-04-11T09:25:09.670Z,9.90
2023-04-11T09:27:40.011Z,9.90
2023-04-11T09:30:23.921Z,10.10
2023-04-11T09:32:53.369Z,10.20
2023-04-11T09:35:25.199Z,10.30
2023-04-11T09:37:57.098Z,10.30
2023-04-11T09:40:32.021Z,10.30
2023-04-11T09:43:00.757Z,10.40
2023-04-11T09:45:29.011Z,10.40
2023-04-11T09:48:06.274Z,10.40
2023-04-11T09:50:38.370Z,10.40
2023-04-11T09:53:06.944Z,10.40
2023-04-11T09:55:33.900Z,10.40
2023-04-11T09:58:01.288Z,10.40
2023-04-11T10:00:32.552Z,10.40
2023-04-11T10:02:59.856Z,10.40
2023-04-11T10:05:28.919Z,10.50
2023-04-11T10:07:59.882Z,10.60
2023-04-11T10:10:29.844Z,10.70
2023-04-11T10:12:56.924Z,10.70
2023-04-11T10:15:23.987Z,10.70
2023-04-11T10:18:11.292Z,10.70
2023-04-11T10:20:43.966Z,10.80
2023-04-11T10:23:14.476Z,10.80
2023-04-11T10:26:08.248Z,11.00
2023-04-11T10:28:39.714Z,11.30
2023-04-11T10:31:09.974Z,11.40
2023-04-11T10:33:45.974Z,11.40
2023-04-11T10:36:13.239Z,11.40
2023-04-11T10:38:49.383Z,11.50
2023-04-11T10:41:18.078Z,11.60
2023-04-11T10:43:46.146Z,11.70
2023-04-11T10:46:22.056Z,11.80
2023-04-11T10:49:06.028Z,11.80
2023-04-11T10:51:34.085Z,11.80
2023-04-11T10:54:02.145Z,11.70
2023-04-11T10:56:48.893Z,11.70
2023-04-11T10:59:31.443Z,11.50
2023-04-11T11:02:02.499Z,11.40
2023-04-11T11:04:33.380Z,11.20
2023-04-11T11:07:01.754Z,11.00
2023-04-11T11:09:31.552Z,11.20
2023-04-11T11:12:15.722Z,11.30
2023-04-11T11:14:45.015Z,11.40
2023-04-11T11:17:13.663Z,11.50
2023-04-11T11:19:47.939Z,11.60
2023-04-11T11:22:19.111Z,11.80
2023-04-11T11:24:46.054Z,11.90
2023-04-11T11:27:25.689Z,12.10
2023-04-11T11:29:55.145Z,12.00
2023-04-11T11:32:29.228Z,12.10
2023-04-11T11:34:59.755Z,12.00
2023-04-11T11:37:27.086Z,12.00
2023-04-11T11:39:58.697Z,12.00
2023-04-11T11:42:25.770Z,12.00
2023-04-11T11:44:52.743Z,12.30
2023-04-11T11:47:24.011Z,12.50
2023-04-11T11:49:55.589Z,12.60
2023-04-11T11:52:43.484Z,12.70
2023-04-11T11:55:19.400Z,12.80
2023-04-11T11:57:47.852Z,12.80
2023-04-11T12:00:15.879Z,12.70
2023-04-11T12:02:44.706Z,12.80
2023-04-11T12:05:12.636Z,12.90
2023-04-11T12:07:40.584Z,12.80
2023-04-11T12:10:11.576Z,12.70
2023-04-11T12:12:40.166Z,12.50
2023-04-11T12:15:14.576Z,12.40
2023-04-11T12:17:41.448Z,12.30
2023-04-11T12:20:11.071Z,12.40
2023-04-11T12:22:38.511Z,12.50
2023-04-11T12:25:10.688Z,12.80
2023-04-11T12:27:42.525Z,12.70
2023-04-11T12:30:11.294Z,12.60
2023-04-11T12:32:38.748Z,12.70
2023-04-11T12:35:06.418Z,12.60
2023-04-11T12:37:34.045Z,12.50
2023-04-11T12:40:01.248Z,12.40
2023-04-11T12:42:28.238Z,12.40
2023-04-11T12:44:55.158Z,12.30
2023-04-11T12:47:21.916Z,12.30
2023-04-11T12:49:48.754Z,12.20
2023-04-11T12:52:15.621Z,12.40
2023-04-11T12:54:42.334Z,12.30
2023-04-11T12:57:09.120Z,12.30
2023-04-11T12:59:36.282Z,12.40
2023-04-11T13:02:03.207Z,12.30
2023-04-11T13:04:30.540Z,12.30
2023-04-11T13:07:01.399Z,12.30
2023-04-11T13:09:32.488Z,12.50
2023-04-11T13:11:59.541Z,12.60
2023-04-11T13:14:26.332Z,12.80
2023-04-11T13:16:53.202Z,12.70
2023-04-11T13:19:21.588Z,12.70
2023-04-11T13:21:48.596Z,12.60
2023-04-11T13:24:16.441Z,12.80
2023-04-11T13:26:45.150Z,12.70
2023-04-11T13:29:14.637Z,12.60
2023-04-11T13:31:41.615Z,12.70
2023-04-11T13:34:12.134Z,12.60
2023-04-11T13:36:39.091Z,12.70
2023-04-11T13:39:06.172Z,12.50
2023-04-11T13:41:33.089Z,12.50
2023-04-11T13:43:59.838Z,12.40
2023-04-11T13:46:27.246Z,12.30
2023-04-11T13:48:54.013Z,12.40
2023-04-11T13:51:21.089Z,12.50
2023-04-11T13:53:48.097Z,12.60
2023-04-11T13:56:14.895Z,12.60
2023-04-11T13:58:41.655Z,12.70
2023-04-11T14:01:08.484Z,12.70
2023-04-11T14:03:35.494Z,12.60
2023-04-11T14:06:03.509Z,12.70
2023-04-11T14:08:30.891Z,12.60
2023-04-11T14:10:57.772Z,12.60
2023-04-11T14:13:24.567Z,12.60
2023-04-11T14:16:04.904Z,12.60
2023-04-11T14:18:34.647Z,12.70
2023-04-11T14:21:01.805Z,12.70
2023-04-11T14:23:29.611Z,12.80
2023-04-11T14:25:56.812Z,12.70
2023-04-11T14:28:26.457Z,12.80
2023-04-11T14:30:55.119Z,13.00
2023-04-11T14:33:21.954Z,12.90
2023-04-11T14:35:50.506Z,12.90
2023-04-11T14:38:17.369Z,12.90
2023-04-11T14:40:44.708Z,12.80
2023-04-11T14:43:12.024Z,12.80
2023-04-11T14:45:38.852Z,12.70
2023-04-11T14:48:05.840Z,12.70
2023-04-11T14:50:32.672Z,12.60
2023-04-11T14:52:59.387Z,12.60
2023-04-11T14:55:26.081Z,12.60
2023-04-11T14:57:55.124Z,12.60
2023-04-11T15:00:22.905Z,12.50
2023-04-11T15:02:55.704Z,12.50
2023-04-11T15:05:23.496Z,12.50
2023-04-11T15:07:52.025Z,12.40
2023-04-11T15:10:21.410Z,12.40
2023-04-11T15:12:48.659Z,12.40
2023-04-11T15:15:16.069Z,12.50
2023-04-11T15:17:47.802Z,12.50
2023-04-11T15:20:15.609Z,12.50
2023-04-11T15:22:44.928Z,12.40
2023-04-11T15:25:13.429Z,12.40
2023-04-11T15:27:41.007Z,12.50
2023-04-11T15:30:08.339Z,12.30
2023-04-11T15:32:35.597Z,12.40
2023-04-11T15:35:03.035Z,12.50
2023-04-11T15:37:30.302Z,12.40
2023-04-11T15:39:57.761Z,12.50
2023-04-11T15:42:24.716Z,12.50
2023-04-11T15:44:51.526Z,12.50
2023-04-11T15:47:18.529Z,12.40
2023-04-11T15:49:45.344Z,12.50
2023-04-11T15:52:12.191Z,12.50
2023-04-11T15:54:39.004Z,12.50
2023-04-11T15:57:05.822Z,12.40
2023-04-11T15:59:33.715Z,12.40
2023-04-11T16:02:00.580Z,12.40
2023-04-11T16:04:27.561Z,12.50
2023-04-11T16:06:54.402Z,12.40
2023-04-11T16:09:21.127Z,12.40
2023-04-11T16:11:48.066Z,12.30
2023-04-11T16:14:14.793Z,12.30
2023-04-11T16:16:46.108Z,12.30
2023-04-11T16:19:12.809Z,12.20
2023-04-11T16:21:39.604Z,12.20
2023-04-11T16:24:06.539Z,12.10
2023-04-11T16:26:33.257Z,12.20
2023-04-11T16:28:59.922Z,12.20
2023-04-11T16:31:27.197Z,12.20
2023-04-11T16:33:55.174Z,12.20
2023-04-11T16:36:22.474Z,12.20
2023-04-11T16:38:52.405Z,12.10
2023-04-11T16:41:19.115Z,12.10
2023-04-11T16:43:45.766Z,12.00
2023-04-11T16:46:16.288Z,12.00
2023-04-11T16:48:43.813Z,12.00
2023-04-11T16:51:11.495Z,12.00
2023-04-11T16:53:39.005Z,11.90
2023-04-11T16:56:06.309Z,12.00
2023-04-11T16:58:33.711Z,11.90
2023-04-11T17:01:01.525Z,11.90
2023-04-11T17:03:28.695Z,12.00
2023-04-11T17:05:55.999Z,11.90
2023-04-11T17:08:23.947Z,11.80
2023-04-11T17:10:51.042Z,11.80
2023-04-11T17:13:19.201Z,11.80
2023-04-11T17:15:46.386Z,11.80
2023-04-11T17:18:14.841Z,11.80
2023-04-11T17:20:43.520Z,11.70
2023-04-11T17:23:10.628Z,11.70
2023-04-11T17:25:37.457Z,11.60
2023-04-11T17:28:04.425Z,11.60
2023-04-11T17:30:32.227Z,11.50
2023-04-11T17:32:59.643Z,11.50
2023-04-11T17:35:27.823Z,11.50
2023-04-11T17:37:55.188Z,11.40
2023-04-11T17:40:21.956Z,11.40
2023-04-11T17:42:49.027Z,11.30
2023-04-11T17:45:18.608Z,11.30
2023-04-11T17:47:49.260Z,11.20
2023-04-11T17:50:17.371Z,11.20
2023-04-11T17:52:45.041Z,11.10
2023-04-11T17:55:13.067Z,11.10
2023-04-11T17:57:40.461Z,11.00
2023-04-11T18:00:23.500Z,10.90
2023-04-11T18:02:52.503Z,10.80
2023-04-11T18:05:24.621Z,10.80
2023-04-11T18:07:54.207Z,10.80
2023-04-11T18:10:21.938Z,10.70
2023-04-11T18:12:51.438Z,10.70
2023-04-11T18:15:18.776Z,10.60
2023-04-11T18:17:45.752Z,10.50
2023-04-11T18:20:14.130Z,10.50
2023-04-11T18:22:46.424Z,10.50
2023-04-11T18:25:13.399Z,10.40
2023-04-11T18:27:41.568Z,10.30
2023-04-11T18:30:12.265Z,10.30
2023-04-11T18:32:43.094Z,10.20
2023-04-11T18:35:13.008Z,10.20
2023-04-11T18:37:41.444Z,10.20
2023-04-11T18:40:12.593Z,10.10
2023-04-11T18:42:41.237Z,10.10
2023-04-11T18:45:08.880Z,10.10
2023-04-11T18:47:35.794Z,10.00
2023-04-11T18:50:02.944Z,9.90
2023-04-11T18:52:29.633Z,9.90
2023-04-11T18:54:56.487Z,9.90
2023-04-11T18:57:26.538Z,9.90
2023-04-11T18:59:56.703Z,9.80
2023-04-11T19:02:24.642Z,9.70
2023-04-11T19:04:52.048Z,9.60
2023-04-11T19:07:19.163Z,9.60
2023-04-11T19:09:46.975Z,9.60
2023-04-11T19:12:17.001Z,9.60
2023-04-11T19:14:44.087Z,9.50
2023-04-11T19:17:15.024Z,9.50
2023-04-11T19:19:43.258Z,9.50
2023-04-11T19:22:10.216Z,9.50
2023-04-11T19:24:37.106Z,9.50
2023-04-11T19:27:03.879Z,9.50
2023-04-11T19:29:30.683Z,9.30
2023-04-11T19:31:57.341Z,9.20
2023-04-11T19:34:24.377Z,9.10
2023-04-11T19:36:51.946Z,9.00
2023-04-11T19:39:18.759Z,9.10
2023-04-11T19:41:46.396Z,9.10
2023-04-11T19:44:13.523Z,9.10
2023-04-11T19:46:41.085Z,9.10
2023-04-11T19:49:08.238Z,9.10
2023-04-11T19:51:34.989Z,9.00
2023-04-11T19:54:01.859Z,9.00
2023-04-11T19:56:28.679Z,9.00
2023-04-11T19:58:55.437Z,9.00
2023-04-11T20:01:22.719Z,8.80
2023-04-11T20:03:54.497Z,8.80
2023-04-11T20:06:22.732Z,8.80
2023-04-11T20:08:49.575Z,8.80
2023-04-11T20:11:16.522Z,8.80
2023-04-11T20:13:43.201Z,8.70
2023-04-11T20:16:11.219Z,8.70
2023-04-11T20:18:37.958Z,8.60
2023-04-11T20:21:07.473Z,8.60
2023-04-11T20:23:35.780Z,8.60
2023-04-11T20:26:02.519Z,8.60
2023-04-11T20:28:30.385Z,8.60
2023-04-11T20:30:59.000Z,8.50
2023-04-11T20:33:26.594Z,8.40
2023-04-11T20:35:55.934Z,8.40
2023-04-11T20:38:22.859Z,8.50
2023-04-11T20:40:49.678Z,8.50
2023-04-11T20:43:17.655Z,8.50
2023-04-11T20:45:45.852Z,8.40
2023-04-11T20:48:13.605Z,8.40
2023-04-11T20:50:41.854Z,8.30
2023-04-11T20:53:08.626Z,8.30
2023-04-11T20:55:35.594Z,8.30
2023-04-11T20:58:02.552Z,8.30
2023-04-11T21:00:29.442Z,8.40
2023-04-11T21:02:56.323Z,8.40
2023-04-11T21:05:24.735Z,8.40
2023-04-11T21:07:54.358Z,8.30
2023-04-11T21:10:21.580Z,8.20
2023-04-11T21:12:51.544Z,8.20
2023-04-11T21:15:19.844Z,8.10
2023-04-11T21:17:47.397Z,8.10
2023-04-11T21:20:20.670Z,8.10
2023-04-11T21:22:48.546Z,8.10
2023-04-11T21:25:16.306Z,8.10
2023-04-11T21:27:43.455Z,8.10
2023-04-11T21:30:11.424Z,8.10
2023-04-11T21:32:39.134Z,8.00
2023-04-11T21:35:11.180Z,7.90
2023-04-11T21:37:38.434Z,8.00
2023-04-11T21:40:05.756Z,8.00
2023-04-11T21:42:32.571Z,8.00
2023-04-11T21:44:59.381Z,7.90
2023-04-11T21:47:26.224Z,8.00
2023-04-11T21:49:52.986Z,8.00
2023-04-11T21:52:19.659Z,8.00
2023-04-11T21:54:46.733Z,8.00
2023-04-11T21:57:13.552Z,8.00
2023-04-11T21:59:40.360Z,8.00
2023-04-11T22:02:07.377Z,8.10
2023-04-11T22:04:39.234Z,8.10
2023-04-11T22:07:15.463Z,8.00
2023-04-11T22:09:46.984Z,8.00
2023-04-11T22:12:17.828Z,7.90
2023-04-11T22:14:44.519Z,7.90
2023-04-11T22:17:11.302Z,7.90
2023-04-11T22:19:38.026Z,7.90
2023-04-11T22:22:08.245Z,7.80
2023-04-11T22:24:38.126Z,7.80
2023-04-11T22:27:06.176Z,7.80
2023-04-11T22:29:34.461Z,7.80
2023-04-11T22:32:04.019Z,7.70
2023-04-11T22:34:31.050Z,7.70
2023-04-11T22:36:57.902Z,7.70
2023-04-11T22:39:25.421Z,7.70
2023-04-11T22:41:53.365Z,7.70
2023-04-11T22:44:20.805Z,7.70
2023-04-11T22:47:06.620Z,7.60
2023-04-11T22:49:40.691Z,7.60
2023-04-11T22:52:14.408Z,7.60
2023-04-11T22:54:42.651Z,7.50
2023-04-11T22:57:09.600Z,7.60
2023-04-11T22:59:36.730Z,7.60
2023-04-11T23:02:03.811Z,7.60
2023-04-11T23:04:32.209Z,7.60
2023-04-11T23:06:59.279Z,7.60
2023-04-11T23:09:26.394Z,7.50
2023-04-11T23:11:53.531Z,7.50
2023-04-11T23:14:21.159Z,7.50
2023-04-11T23:16:48.618Z,7.40
2023-04-11T23:19:15.614Z,7.40
2023-04-11T23:21:43.018Z,7.40
2023-04-11T23:24:10.039Z,7.40
2023-04-11T23:26:37.135Z,7.40
2023-04-11T23:29:04.422Z,7.40
2023-04-11T23:31:34.312Z,7.40
2023-04-11T23:34:01.742Z,7.30
2023-04-11T23:36:29.317Z,7.30
2023-04-11T23:38:56.825Z,7.30
2023-04-11T23:41:24.138Z,7.30
2023-04-11T23:43:51.298Z,7.30
2023-04-11T23:46:18.270Z,7.30
2023-04-11T23:48:46.930Z,7.30
2023-04-11T23:51:14.073Z,7.20
2023-04-11T23:53:41.087Z,7.20
2023-04-11T23:56:08.921Z,7.20
2023-04-11T23:58:35.617Z,7.20
